EPKT

Katowice International Airport

Airport
ICAO code
EPKT
IATA Code
KTW
Summary
ICAO Region
EUR
ICAO Territory
Location

Pyrzowice, Silesia

Serving
Katowice
Elevation
997 ft
Coordinates
50° 28' 22" N , 19° 4' 33" E
Metar
Observation
EPKT 170930Z 36004KT 9999 SCT040 27/17 Q1012
Station
Katowice
Date/Time
2022-08-17 09:30:00
Wind direction
360°
Wind speed
04 kts
Lowest cloud amount
scattered clouds
Temperature
27°C
Dew point
17°C
Humidity
54%
QNH
1012 hPa
Weather condition
n/a

Runways

Designator Length Width Surface Rops
9/27 2799 59 CON Yes/Yes

Airport map

Aerial View

Airport accidents

SKYbrary Partners:

Safety knowledge contributed by: